sensor_id;sensor_type;location;lat;lon;timestamp;pressure;altitude;pressure_sealevel;temperature;humidity
62038;BME280;47991;42.974;12.082;2023-11-19T00:00:08;98454.02;;;4.14;78.98
62038;BME280;47991;42.974;12.082;2023-11-19T00:02:58;98462.45;;;4.20;78.51
62038;BME280;47991;42.974;12.082;2023-11-19T00:05:25;98473.85;;;4.22;80.42
62038;BME280;47991;42.974;12.082;2023-11-19T00:07:54;98477.80;;;4.13;82.13
62038;BME280;47991;42.974;12.082;2023-11-19T00:10:22;98479.61;;;4.01;84.13
62038;BME280;47991;42.974;12.082;2023-11-19T00:12:49;98480.09;;;3.95;85.64
62038;BME280;47991;42.974;12.082;2023-11-19T00:15:17;98481.55;;;3.84;85.14
62038;BME280;47991;42.974;12.082;2023-11-19T00:17:45;98480.52;;;3.85;83.23
62038;BME280;47991;42.974;12.082;2023-11-19T00:20:18;98494.34;;;3.86;82.93
62038;BME280;47991;42.974;12.082;2023-11-19T00:22:45;98491.71;;;3.85;83.20
62038;BME280;47991;42.974;12.082;2023-11-19T00:25:18;98491.15;;;3.82;83.51
62038;BME280;47991;42.974;12.082;2023-11-19T00:27:45;98492.71;;;3.81;82.65
62038;BME280;47991;42.974;12.082;2023-11-19T00:30:13;98487.98;;;3.81;83.05
62038;BME280;47991;42.974;12.082;2023-11-19T00:32:41;98487.87;;;3.85;82.28
62038;BME280;47991;42.974;12.082;2023-11-19T00:35:08;98486.02;;;3.93;82.76
62038;BME280;47991;42.974;12.082;2023-11-19T00:37:40;98480.33;;;3.84;84.61
62038;BME280;47991;42.974;12.082;2023-11-19T00:40:09;98479.05;;;3.78;82.91
62038;BME280;47991;42.974;12.082;2023-11-19T00:42:37;98477.77;;;3.74;82.96
62038;BME280;47991;42.974;12.082;2023-11-19T00:45:04;98472.83;;;3.69;82.98
62038;BME280;47991;42.974;12.082;2023-11-19T00:47:36;98472.08;;;3.64;82.65
62038;BME280;47991;42.974;12.082;2023-11-19T00:50:03;98472.75;;;3.61;82.77
62038;BME280;47991;42.974;12.082;2023-11-19T00:52:30;98475.13;;;3.56;83.28
62038;BME280;47991;42.974;12.082;2023-11-19T00:54:57;98469.55;;;3.57;82.60
62038;BME280;47991;42.974;12.082;2023-11-19T00:57:24;98460.86;;;3.63;84.41
62038;BME280;47991;42.974;12.082;2023-11-19T00:59:53;98465.77;;;3.62;83.11
62038;BME280;47991;42.974;12.082;2023-11-19T01:02:20;98466.94;;;3.58;83.28
62038;BME280;47991;42.974;12.082;2023-11-19T01:04:47;98466.91;;;3.54;82.82
62038;BME280;47991;42.974;12.082;2023-11-19T01:07:14;98465.83;;;3.51;83.22
62038;BME280;47991;42.974;12.082;2023-11-19T01:09:43;98462.15;;;3.50;83.36
62038;BME280;47991;42.974;12.082;2023-11-19T01:12:10;98460.34;;;3.46;83.66
62038;BME280;47991;42.974;12.082;2023-11-19T01:14:37;98456.42;;;3.39;84.47
62038;BME280;47991;42.974;12.082;2023-11-19T01:17:04;98446.44;;;3.38;83.47
62038;BME280;47991;42.974;12.082;2023-11-19T01:19:31;98446.84;;;3.41;83.35
62038;BME280;47991;42.974;12.082;2023-11-19T01:21:58;98440.73;;;3.43;83.15
62038;BME280;47991;42.974;12.082;2023-11-19T01:24:25;98436.02;;;3.45;82.99
62038;BME280;47991;42.974;12.082;2023-11-19T01:26:56;98435.94;;;3.51;84.08
62038;BME280;47991;42.974;12.082;2023-11-19T01:29:24;98439.40;;;3.49;86.03
62038;BME280;47991;42.974;12.082;2023-11-19T01:31:51;98439.44;;;3.37;87.06
62038;BME280;47991;42.974;12.082;2023-11-19T01:34:18;98439.42;;;3.35;84.85
62038;BME280;47991;42.974;12.082;2023-11-19T01:36:46;98441.88;;;3.36;84.53
62038;BME280;47991;42.974;12.082;2023-11-19T01:39:13;98440.16;;;3.38;84.06
62038;BME280;47991;42.974;12.082;2023-11-19T01:41:42;98432.61;;;3.35;84.14
62038;BME280;47991;42.974;12.082;2023-11-19T01:44:10;98428.71;;;3.30;84.03
62038;BME280;47991;42.974;12.082;2023-11-19T01:46:42;98428.84;;;3.26;84.38
62038;BME280;47991;42.974;12.082;2023-11-19T01:49:09;98432.11;;;3.23;84.14
62038;BME280;47991;42.974;12.082;2023-11-19T01:51:36;98435.26;;;3.23;83.89
62038;BME280;47991;42.974;12.082;2023-11-19T01:54:03;98439.13;;;3.25;83.86
62038;BME280;47991;42.974;12.082;2023-11-19T01:56:31;98435.36;;;3.30;83.89
62038;BME280;47991;42.974;12.082;2023-11-19T01:58:59;98435.41;;;3.35;83.92
62038;BME280;47991;42.974;12.082;2023-11-19T02:01:27;98439.67;;;3.43;83.84
62038;BME280;47991;42.974;12.082;2023-11-19T02:03:56;98439.02;;;3.44;83.97
62038;BME280;47991;42.974;12.082;2023-11-19T02:06:25;98433.57;;;3.43;84.47
62038;BME280;47991;42.974;12.082;2023-11-19T02:08:53;98437.58;;;3.41;84.05
62038;BME280;47991;42.974;12.082;2023-11-19T02:11:20;98437.59;;;3.42;84.02
62038;BME280;47991;42.974;12.082;2023-11-19T02:13:47;98434.83;;;3.46;83.81
62038;BME280;47991;42.974;12.082;2023-11-19T02:16:13;98433.02;;;3.41;83.81
62038;BME280;47991;42.974;12.082;2023-11-19T02:18:41;98431.79;;;3.40;83.96
62038;BME280;47991;42.974;12.082;2023-11-19T02:21:08;98429.34;;;3.40;83.74
62038;BME280;47991;42.974;12.082;2023-11-19T02:23:37;98423.59;;;3.41;83.66
62038;BME280;47991;42.974;12.082;2023-11-19T02:26:25;98418.85;;;3.39;83.87
62038;BME280;47991;42.974;12.082;2023-11-19T02:28:55;98413.89;;;3.33;84.10
62038;BME280;47991;42.974;12.082;2023-11-19T02:31:22;98411.24;;;3.30;84.03
62038;BME280;47991;42.974;12.082;2023-11-19T02:33:49;98404.92;;;3.28;83.85
62038;BME280;47991;42.974;12.082;2023-11-19T02:36:17;98407.04;;;3.29;83.81
62038;BME280;47991;42.974;12.082;2023-11-19T02:38:44;98404.95;;;3.29;83.89
62038;BME280;47991;42.974;12.082;2023-11-19T02:41:11;98405.96;;;3.27;83.97
62038;BME280;47991;42.974;12.082;2023-11-19T02:43:38;98404.36;;;3.25;84.38
62038;BME280;47991;42.974;12.082;2023-11-19T02:46:06;98407.52;;;3.26;84.48
62038;BME280;47991;42.974;12.082;2023-11-19T02:48:35;98399.12;;;3.25;84.18
62038;BME280;47991;42.974;12.082;2023-11-19T02:51:02;98388.27;;;3.23;84.45
62038;BME280;47991;42.974;12.082;2023-11-19T02:53:36;98390.48;;;3.19;84.43
62038;BME280;47991;42.974;12.082;2023-11-19T02:56:06;98386.29;;;3.17;84.26
62038;BME280;47991;42.974;12.082;2023-11-19T02:58:46;98393.05;;;3.12;84.49
62038;BME280;47991;42.974;12.082;2023-11-19T03:01:21;98399.01;;;3.15;84.09
62038;BME280;47991;42.974;12.082;2023-11-19T03:04:00;98406.52;;;3.14;86.08
62038;BME280;47991;42.974;12.082;2023-11-19T03:06:28;98409.56;;;3.06;86.51
62038;BME280;47991;42.974;12.082;2023-11-19T03:08:55;98416.70;;;3.04;85.46
62038;BME280;47991;42.974;12.082;2023-11-19T03:11:22;98409.42;;;3.08;85.12
62038;BME280;47991;42.974;12.082;2023-11-19T03:13:51;98406.63;;;3.09;85.16
62038;BME280;47991;42.974;12.082;2023-11-19T03:16:18;98406.92;;;3.05;84.97
62038;BME280;47991;42.974;12.082;2023-11-19T03:18:45;98406.91;;;3.03;84.97
62038;BME280;47991;42.974;12.082;2023-11-19T03:21:12;98408.41;;;2.97;85.39
62038;BME280;47991;42.974;12.082;2023-11-19T03:23:39;98400.18;;;2.96;85.71
62038;BME280;47991;42.974;12.082;2023-11-19T03:26:07;98398.63;;;2.97;85.89
62038;BME280;47991;42.974;12.082;2023-11-19T03:28:34;98397.08;;;2.98;85.32
62038;BME280;47991;42.974;12.082;2023-11-19T03:31:04;98393.75;;;2.98;85.45
62038;BME280;47991;42.974;12.082;2023-11-19T03:33:31;98388.35;;;2.99;85.46
62038;BME280;47991;42.974;12.082;2023-11-19T03:35:58;98383.85;;;3.02;85.27
62038;BME280;47991;42.974;12.082;2023-11-19T03:38:25;98381.24;;;3.04;86.94
62038;BME280;47991;42.974;12.082;2023-11-19T03:40:52;98373.28;;;2.95;88.31
62038;BME280;47991;42.974;12.082;2023-11-19T03:43:18;98358.67;;;2.86;88.71
62038;BME280;47991;42.974;12.082;2023-11-19T03:45:48;98353.94;;;2.84;88.21
62038;BME280;47991;42.974;12.082;2023-11-19T03:48:15;98352.54;;;2.83;86.81
62038;BME280;47991;42.974;12.082;2023-11-19T03:50:43;98349.73;;;2.82;86.71
62038;BME280;47991;42.974;12.082;2023-11-19T03:53:11;98353.23;;;2.82;86.37
62038;BME280;47991;42.974;12.082;2023-11-19T03:55:38;98349.23;;;2.85;86.03
62038;BME280;47991;42.974;12.082;2023-11-19T03:58:05;98352.21;;;2.86;86.14
62038;BME280;47991;42.974;12.082;2023-11-19T04:00:32;98352.60;;;2.89;86.03
62038;BME280;47991;42.974;12.082;2023-11-19T04:03:00;98353.48;;;2.88;86.09
62038;BME280;47991;42.974;12.082;2023-11-19T04:05:27;98362.54;;;2.88;86.20
62038;BME280;47991;42.974;12.082;2023-11-19T04:07:54;98361.97;;;2.83;86.05
62038;BME280;47991;42.974;12.082;2023-11-19T04:10:21;98363.33;;;2.79;86.67
62038;BME280;47991;42.974;12.082;2023-11-19T04:12:49;98354.20;;;2.76;86.83
62038;BME280;47991;42.974;12.082;2023-11-19T04:15:16;98352.05;;;2.71;86.97
62038;BME280;47991;42.974;12.082;2023-11-19T04:17:43;98350.95;;;2.67;86.79
62038;BME280;47991;42.974;12.082;2023-11-19T04:20:11;98349.20;;;2.68;87.16
62038;BME280;47991;42.974;12.082;2023-11-19T04:22:39;98344.91;;;2.74;86.86
62038;BME280;47991;42.974;12.082;2023-11-19T04:25:08;98347.98;;;2.82;86.80
62038;BME280;47991;42.974;12.082;2023-11-19T04:27:35;98344.87;;;2.86;86.86
62038;BME280;47991;42.974;12.082;2023-11-19T04:30:03;98348.28;;;2.92;86.47
62038;BME280;47991;42.974;12.082;2023-11-19T04:32:30;98337.51;;;2.97;86.44
62038;BME280;47991;42.974;12.082;2023-11-19T04:34:57;98335.28;;;3.04;86.77
62038;BME280;47991;42.974;12.082;2023-11-19T04:37:24;98344.76;;;3.06;86.64
62038;BME280;47991;42.974;12.082;2023-11-19T04:39:51;98350.80;;;2.99;88.30
62038;BME280;47991;42.974;12.082;2023-11-19T04:42:18;98348.96;;;2.92;87.72
62038;BME280;47991;42.974;12.082;2023-11-19T04:44:45;98350.39;;;2.95;87.36
62038;BME280;47991;42.974;12.082;2023-11-19T04:47:12;98351.80;;;2.95;87.16
62038;BME280;47991;42.974;12.082;2023-11-19T04:49:42;98348.96;;;2.92;87.09
62038;BME280;47991;42.974;12.082;2023-11-19T04:52:09;98353.16;;;2.91;86.64
62038;BME280;47991;42.974;12.082;2023-11-19T04:54:42;98353.48;;;2.90;86.78
62038;BME280;47991;42.974;12.082;2023-11-19T04:57:10;98354.99;;;2.85;87.07
62038;BME280;47991;42.974;12.082;2023-11-19T04:59:38;98358.95;;;2.79;87.15
62038;BME280;47991;42.974;12.082;2023-11-19T05:02:05;98359.65;;;2.78;86.91
62038;BME280;47991;42.974;12.082;2023-11-19T05:04:32;98354.21;;;2.77;87.08
62038;BME280;47991;42.974;12.082;2023-11-19T05:06:59;98358.52;;;2.74;87.46
62038;BME280;47991;42.974;12.082;2023-11-19T05:09:25;98358.13;;;2.69;87.16
62038;BME280;47991;42.974;12.082;2023-11-19T05:11:52;98356.20;;;2.69;86.92
62038;BME280;47991;42.974;12.082;2023-11-19T05:14:19;98350.36;;;2.76;86.80
62038;BME280;47991;42.974;12.082;2023-11-19T05:16:48;98351.30;;;2.83;86.87
62038;BME280;47991;42.974;12.082;2023-11-19T05:19:14;98355.54;;;2.86;86.91
62038;BME280;47991;42.974;12.082;2023-11-19T05:21:45;98356.74;;;2.85;88.67
62038;BME280;47991;42.974;12.082;2023-11-19T05:24:12;98350.30;;;2.72;89.25
62038;BME280;47991;42.974;12.082;2023-11-19T05:26:39;98348.98;;;2.65;88.38
62038;BME280;47991;42.974;12.082;2023-11-19T05:29:05;98340.23;;;2.62;87.89
62038;BME280;47991;42.974;12.082;2023-11-19T05:31:32;98341.60;;;2.60;87.57
62038;BME280;47991;42.974;12.082;2023-11-19T05:33:59;98339.13;;;2.58;87.92
62038;BME280;47991;42.974;12.082;2023-11-19T05:36:26;98342.10;;;2.58;87.68
62038;BME280;47991;42.974;12.082;2023-11-19T05:38:56;98338.99;;;2.60;87.37
62038;BME280;47991;42.974;12.082;2023-11-19T05:41:22;98340.71;;;2.59;87.51
62038;BME280;47991;42.974;12.082;2023-11-19T05:43:49;98343.13;;;2.56;87.01
62038;BME280;47991;42.974;12.082;2023-11-19T05:46:16;98340.98;;;2.54;87.41
62038;BME280;47991;42.974;12.082;2023-11-19T05:48:43;98342.88;;;2.51;87.36
62038;BME280;47991;42.974;12.082;2023-11-19T05:51:12;98347.41;;;2.51;87.21
62038;BME280;47991;42.974;12.082;2023-11-19T05:53:39;98347.31;;;2.56;87.04
62038;BME280;47991;42.974;12.082;2023-11-19T05:56:06;98350.46;;;2.55;89.08
62038;BME280;47991;42.974;12.082;2023-11-19T05:58:36;98351.59;;;2.50;89.21
62038;BME280;47991;42.974;12.082;2023-11-19T06:01:04;98351.80;;;2.51;88.42
62038;BME280;47991;42.974;12.082;2023-11-19T06:03:33;98350.77;;;2.54;87.97
62038;BME280;47991;42.974;12.082;2023-11-19T06:06:00;98350.60;;;2.53;87.84
62038;BME280;47991;42.974;12.082;2023-11-19T06:08:27;98344.08;;;2.49;88.16
62038;BME280;47991;42.974;12.082;2023-11-19T06:10:54;98337.61;;;2.49;87.86
62038;BME280;47991;42.974;12.082;2023-11-19T06:13:21;98335.75;;;2.53;87.71
62038;BME280;47991;42.974;12.082;2023-11-19T06:15:48;98335.30;;;2.58;87.92
62038;BME280;47991;42.974;12.082;2023-11-19T06:18:15;98334.63;;;2.60;87.77
62038;BME280;47991;42.974;12.082;2023-11-19T06:20:43;98334.00;;;2.67;87.51
62038;BME280;47991;42.974;12.082;2023-11-19T06:23:10;98340.90;;;2.75;87.47
62038;BME280;47991;42.974;12.082;2023-11-19T06:25:37;98345.02;;;2.82;87.41
62038;BME280;47991;42.974;12.082;2023-11-19T06:28:05;98351.58;;;2.91;87.28
62038;BME280;47991;42.974;12.082;2023-11-19T06:30:31;98357.25;;;2.98;87.07
62038;BME280;47991;42.974;12.082;2023-11-19T06:32:59;98357.44;;;3.00;87.18
62038;BME280;47991;42.974;12.082;2023-11-19T06:35:26;98359.39;;;3.02;87.19
62038;BME280;47991;42.974;12.082;2023-11-19T06:37:55;98359.24;;;3.05;87.26
62038;BME280;47991;42.974;12.082;2023-11-19T06:40:23;98360.49;;;3.08;87.57
62038;BME280;47991;42.974;12.082;2023-11-19T06:42:50;98357.97;;;3.17;87.54
62038;BME280;47991;42.974;12.082;2023-11-19T06:45:19;98360.87;;;3.26;87.06
62038;BME280;47991;42.974;12.082;2023-11-19T06:47:45;98359.16;;;3.30;87.23
62038;BME280;47991;42.974;12.082;2023-11-19T06:50:13;98358.65;;;3.32;87.13
62038;BME280;47991;42.974;12.082;2023-11-19T06:52:39;98352.05;;;3.37;87.33
62038;BME280;47991;42.974;12.082;2023-11-19T06:55:07;98348.08;;;3.41;87.43
62038;BME280;47991;42.974;12.082;2023-11-19T06:57:34;98346.20;;;3.46;87.74
62038;BME280;47991;42.974;12.082;2023-11-19T07:00:01;98342.66;;;3.61;87.33
62038;BME280;47991;42.974;12.082;2023-11-19T07:02:33;98341.97;;;3.83;87.03
62038;BME280;47991;42.974;12.082;2023-11-19T07:05:00;98342.83;;;4.04;86.80
62038;BME280;47991;42.974;12.082;2023-11-19T07:07:28;98337.93;;;4.35;86.93
62038;BME280;47991;42.974;12.082;2023-11-19T07:09:54;98333.77;;;4.43;87.52
62038;BME280;47991;42.974;12.082;2023-11-19T07:12:21;98335.89;;;4.45;87.17
62038;BME280;47991;42.974;12.082;2023-11-19T07:14:48;98333.14;;;4.58;86.83
62038;BME280;47991;42.974;12.082;2023-11-19T07:17:15;98327.98;;;4.78;86.45
62038;BME280;47991;42.974;12.082;2023-11-19T07:19:44;98326.30;;;4.94;86.21
62038;BME280;47991;42.974;12.082;2023-11-19T07:22:11;98328.42;;;5.07;86.00
62038;BME280;47991;42.974;12.082;2023-11-19T07:24:41;98324.58;;;5.12;86.08
62038;BME280;47991;42.974;12.082;2023-11-19T07:27:09;98323.71;;;5.16;86.17
62038;BME280;47991;42.974;12.082;2023-11-19T07:29:36;98326.01;;;5.29;86.29
62038;BME280;47991;42.974;12.082;2023-11-19T07:32:04;98330.77;;;5.41;86.56
62038;BME280;47991;42.974;12.082;2023-11-19T07:34:31;98327.63;;;5.53;86.40
62038;BME280;47991;42.974;12.082;2023-11-19T07:37:02;98330.79;;;5.65;86.31
62038;BME280;47991;42.974;12.082;2023-11-19T07:39:29;98327.98;;;5.69;86.47
62038;BME280;47991;42.974;12.082;2023-11-19T07:41:57;98327.63;;;5.61;86.79
62038;BME280;47991;42.974;12.082;2023-11-19T07:44:24;98333.77;;;5.65;86.89
62038;BME280;47991;42.974;12.082;2023-11-19T07:46:52;98332.70;;;5.79;86.38
62038;BME280;47991;42.974;12.082;2023-11-19T07:49:19;98335.71;;;5.76;85.76
62038;BME280;47991;42.974;12.082;2023-11-19T07:51:46;98337.09;;;5.85;86.26
62038;BME280;47991;42.974;12.082;2023-11-19T07:54:13;98339.57;;;6.07;86.26
62038;BME280;47991;42.974;12.082;2023-11-19T07:56:40;98340.59;;;6.32;86.44
62038;BME280;47991;42.974;12.082;2023-11-19T07:59:07;98343.85;;;6.59;84.83
62038;BME280;47991;42.974;12.082;2023-11-19T08:01:34;98339.45;;;6.56;83.38
62038;BME280;47991;42.974;12.082;2023-11-19T08:04:01;98331.63;;;6.31;82.99
62038;BME280;47991;42.974;12.082;2023-11-19T08:06:29;98329.84;;;6.46;83.60
62038;BME280;47991;42.974;12.082;2023-11-19T08:08:56;98330.61;;;6.74;82.97
62038;BME280;47991;42.974;12.082;2023-11-19T08:11:23;98328.77;;;6.94;82.53
62038;BME280;47991;42.974;12.082;2023-11-19T08:13:51;98326.19;;;7.17;83.26
62038;BME280;47991;42.974;12.082;2023-11-19T08:16:17;98327.04;;;7.49;83.09
62038;BME280;47991;42.974;12.082;2023-11-19T08:18:44;98330.17;;;7.77;82.23
62038;BME280;47991;42.974;12.082;2023-11-19T08:21:11;98335.59;;;8.02;82.29
62038;BME280;47991;42.974;12.082;2023-11-19T08:23:38;98343.84;;;8.44;81.13
62038;BME280;47991;42.974;12.082;2023-11-19T08:26:05;98353.63;;;8.52;78.46
62038;BME280;47991;42.974;12.082;2023-11-19T08:28:33;98354.36;;;8.29;79.35
62038;BME280;47991;42.974;12.082;2023-11-19T08:31:01;98357.52;;;7.93;79.63
62038;BME280;47991;42.974;12.082;2023-11-19T08:33:30;98356.16;;;7.61;81.22
62038;BME280;47991;42.974;12.082;2023-11-19T08:35:58;98361.46;;;7.32;81.62
62038;BME280;47991;42.974;12.082;2023-11-19T08:38:25;98367.70;;;7.13;82.41
62038;BME280;47991;42.974;12.082;2023-11-19T08:40:53;98370.56;;;7.04;82.77
62038;BME280;47991;42.974;12.082;2023-11-19T08:43:20;98376.39;;;7.00;82.72
62038;BME280;47991;42.974;12.082;2023-11-19T08:45:47;98376.90;;;7.05;83.28
62038;BME280;47991;42.974;12.082;2023-11-19T08:48:14;98374.77;;;7.09;83.35
62038;BME280;47991;42.974;12.082;2023-11-19T08:50:42;98369.25;;;7.21;83.10
62038;BME280;47991;42.974;12.082;2023-11-19T08:53:08;98370.45;;;7.29;82.58
62038;BME280;47991;42.974;12.082;2023-11-19T08:55:35;98373.35;;;7.42;82.53
62038;BME280;47991;42.974;12.082;2023-11-19T08:58:03;98372.91;;;7.56;82.33
62038;BME280;47991;42.974;12.082;2023-11-19T09:00:30;98373.83;;;7.77;82.29
62038;BME280;47991;42.974;12.082;2023-11-19T09:02:59;98374.23;;;7.94;81.71
62038;BME280;47991;42.974;12.082;2023-11-19T09:05:26;98373.11;;;8.21;79.83
62038;BME280;47991;42.974;12.082;2023-11-19T09:07:53;98372.81;;;8.34;80.22
62038;BME280;47991;42.974;12.082;2023-11-19T09:10:19;98370.05;;;8.65;79.18
62038;BME280;47991;42.974;12.082;2023-11-19T09:12:47;98376.46;;;8.77;77.54
62038;BME280;47991;42.974;12.082;2023-11-19T09:15:15;98372.70;;;8.81;77.99
62038;BME280;47991;42.974;12.082;2023-11-19T09:17:43;98377.57;;;8.87;76.62
62038;BME280;47991;42.974;12.082;2023-11-19T09:20:10;98372.88;;;9.10;76.41
62038;BME280;47991;42.974;12.082;2023-11-19T09:22:42;98369.91;;;9.71;75.58
62038;BME280;47991;42.974;12.082;2023-11-19T09:25:09;98368.73;;;10.44;72.55
62038;BME280;47991;42.974;12.082;2023-11-19T09:27:36;98359.23;;;10.30;72.39
62038;BME280;47991;42.974;12.082;2023-11-19T09:30:04;98358.02;;;10.09;73.59
62038;BME280;47991;42.974;12.082;2023-11-19T09:32:31;98356.68;;;10.03;73.89
62038;BME280;47991;42.974;12.082;2023-11-19T09:34:58;98354.33;;;9.74;72.82
62038;BME280;47991;42.974;12.082;2023-11-19T09:37:25;98353.57;;;9.30;73.51
62038;BME280;47991;42.974;12.082;2023-11-19T09:39:52;98353.51;;;9.34;74.90
62038;BME280;47991;42.974;12.082;2023-11-19T09:42:20;98350.50;;;9.82;72.79
62038;BME280;47991;42.974;12.082;2023-11-19T09:44:47;98351.25;;;9.89;74.14
62038;BME280;47991;42.974;12.082;2023-11-19T09:47:17;98346.30;;;10.11;72.44
62038;BME280;47991;42.974;12.082;2023-11-19T09:49:46;98346.40;;;9.95;72.07
62038;BME280;47991;42.974;12.082;2023-11-19T09:52:14;98340.21;;;10.36;72.33
62038;BME280;47991;42.974;12.082;2023-11-19T09:54:41;98341.40;;;10.59;69.87
62038;BME280;47991;42.974;12.082;2023-11-19T09:57:11;98340.77;;;11.08;69.48
62038;BME280;47991;42.974;12.082;2023-11-19T09:59:41;98330.45;;;12.38;66.56
62038;BME280;47991;42.974;12.082;2023-11-19T10:02:09;98323.30;;;13.04;61.08
62038;BME280;47991;42.974;12.082;2023-11-19T10:04:37;98326.73;;;12.83;62.03
62038;BME280;47991;42.974;12.082;2023-11-19T10:07:05;98325.91;;;12.87;62.66
62038;BME280;47991;42.974;12.082;2023-11-19T10:09:32;98327.52;;;12.28;62.75
62038;BME280;47991;42.974;12.082;2023-11-19T10:11:59;98322.27;;;12.52;64.27
62038;BME280;47991;42.974;12.082;2023-11-19T10:14:27;98310.30;;;13.11;60.79
62038;BME280;47991;42.974;12.082;2023-11-19T10:16:55;98314.40;;;12.74;61.82
62038;BME280;47991;42.974;12.082;2023-11-19T10:19:22;98318.63;;;12.36;63.28
62038;BME280;47991;42.974;12.082;2023-11-19T10:21:50;98314.30;;;12.11;64.79
62038;BME280;47991;42.974;12.082;2023-11-19T10:24:31;98310.17;;;11.92;64.29
62038;BME280;47991;42.974;12.082;2023-11-19T10:27:02;98308.08;;;11.75;66.44
62038;BME280;47991;42.974;12.082;2023-11-19T10:29:30;98308.84;;;11.66;65.14
62038;BME280;47991;42.974;12.082;2023-11-19T10:31:57;98301.00;;;11.53;66.12
62038;BME280;47991;42.974;12.082;2023-11-19T10:34:26;98294.41;;;11.47;66.52
62038;BME280;47991;42.974;12.082;2023-11-19T10:36:53;98290.50;;;11.48;66.94
62038;BME280;47991;42.974;12.082;2023-11-19T10:39:20;98295.09;;;11.48;66.62
62038;BME280;47991;42.974;12.082;2023-11-19T10:41:48;98290.67;;;11.48;66.82
62038;BME280;47991;42.974;12.082;2023-11-19T10:44:47;98281.80;;;11.50;67.40
62038;BME280;47991;42.974;12.082;2023-11-19T10:47:14;98278.38;;;11.66;67.17
62038;BME280;47991;42.974;12.082;2023-11-19T10:49:44;98271.20;;;11.77;66.50
62038;BME280;47991;42.974;12.082;2023-11-19T10:52:18;98267.98;;;12.08;66.11
62038;BME280;47991;42.974;12.082;2023-11-19T10:54:50;98260.71;;;12.47;64.64
62038;BME280;47991;42.974;12.082;2023-11-19T10:57:19;98257.23;;;12.24;64.54
62038;BME280;47991;42.974;12.082;2023-11-19T10:59:49;98259.29;;;12.08;65.86
62038;BME280;47991;42.974;12.082;2023-11-19T11:02:19;98259.98;;;12.08;67.02
62038;BME280;47991;42.974;12.082;2023-11-19T11:04:50;98251.98;;;12.16;66.60
62038;BME280;47991;42.974;12.082;2023-11-19T11:07:21;98250.85;;;11.98;66.07
62038;BME280;47991;42.974;12.082;2023-11-19T11:09:52;98252.94;;;11.92;66.57
62038;BME280;47991;42.974;12.082;2023-11-19T11:12:22;98251.59;;;11.97;67.82
62038;BME280;47991;42.974;12.082;2023-11-19T11:14:50;98248.16;;;12.06;67.53
62038;BME280;47991;42.974;12.082;2023-11-19T11:17:23;98246.64;;;12.17;67.55
62038;BME280;47991;42.974;12.082;2023-11-19T11:19:51;98241.12;;;12.24;67.01
62038;BME280;47991;42.974;12.082;2023-11-19T11:22:18;98240.41;;;12.24;67.15
62038;BME280;47991;42.974;12.082;2023-11-19T11:36:02;98222.58;;;12.59;68.00
62038;BME280;47991;42.974;12.082;2023-11-19T11:38:36;98221.44;;;12.73;67.82
62038;BME280;47991;42.974;12.082;2023-11-19T11:41:16;98213.35;;;12.89;67.77
62038;BME280;47991;42.974;12.082;2023-11-19T11:43:47;98211.56;;;12.89;66.16
62038;BME280;47991;42.974;12.082;2023-11-19T11:49:03;98208.28;;;13.09;64.84
62038;BME280;47991;42.974;12.082;2023-11-19T11:57:03;98210.90;;;13.77;64.38
62038;BME280;47991;42.974;12.082;2023-11-19T12:02:08;98207.02;;;14.07;63.06
62038;BME280;47991;42.974;12.082;2023-11-19T12:04:36;98205.54;;;14.14;61.93
62038;BME280;47991;42.974;12.082;2023-11-19T12:07:08;98203.36;;;14.20;61.81
62038;BME280;47991;42.974;12.082;2023-11-19T12:09:40;98202.13;;;14.29;61.40
62038;BME280;47991;42.974;12.082;2023-11-19T12:20:00;98187.95;;;14.57;59.95
62038;BME280;47991;42.974;12.082;2023-11-19T12:22:27;98184.75;;;14.72;60.44
62038;BME280;47991;42.974;12.082;2023-11-19T12:24:55;98182.84;;;14.89;60.00
62038;BME280;47991;42.974;12.082;2023-11-19T12:27:22;98179.71;;;15.01;59.79
62038;BME280;47991;42.974;12.082;2023-11-19T12:29:49;98175.27;;;14.96;59.70
62038;BME280;47991;42.974;12.082;2023-11-19T12:32:17;98175.27;;;14.87;60.44
62038;BME280;47991;42.974;12.082;2023-11-19T12:34:45;98170.80;;;14.78;61.28
62038;BME280;47991;42.974;12.082;2023-11-19T12:37:12;98164.73;;;14.65;60.56
62038;BME280;47991;42.974;12.082;2023-11-19T12:39:39;98161.10;;;14.52;61.04
62038;BME280;47991;42.974;12.082;2023-11-19T12:42:06;98161.73;;;14.45;61.22
62038;BME280;47991;42.974;12.082;2023-11-19T12:44:33;98161.16;;;14.45;61.47
62038;BME280;47991;42.974;12.082;2023-11-19T12:47:04;98158.11;;;14.41;61.87
62038;BME280;47991;42.974;12.082;2023-11-19T12:49:34;98158.86;;;14.26;62.74
62038;BME280;47991;42.974;12.082;2023-11-19T12:52:01;98164.67;;;14.03;63.41
62038;BME280;47991;42.974;12.082;2023-11-19T12:54:35;98162.42;;;13.92;64.68
62038;BME280;47991;42.974;12.082;2023-11-19T12:57:02;98157.18;;;13.79;65.00
62038;BME280;47991;42.974;12.082;2023-11-19T12:59:29;98153.25;;;13.74;65.58
62038;BME280;47991;42.974;12.082;2023-11-19T13:01:57;98153.35;;;13.76;65.29
62038;BME280;47991;42.974;12.082;2023-11-19T13:04:29;98152.39;;;13.68;65.68
62038;BME280;47991;42.974;12.082;2023-11-19T13:07:00;98154.09;;;13.65;66.06
62038;BME280;47991;42.974;12.082;2023-11-19T13:09:27;98153.83;;;13.68;65.69
62038;BME280;47991;42.974;12.082;2023-11-19T13:11:56;98152.42;;;13.72;65.82
62038;BME280;47991;42.974;12.082;2023-11-19T13:14:23;98149.31;;;13.80;65.74
62038;BME280;47991;42.974;12.082;2023-11-19T13:16:50;98144.63;;;13.82;65.59
62038;BME280;47991;42.974;12.082;2023-11-19T13:19:17;98148.49;;;13.73;66.42
62038;BME280;47991;42.974;12.082;2023-11-19T13:21:45;98154.41;;;13.61;67.21
62038;BME280;47991;42.974;12.082;2023-11-19T13:24:15;98149.92;;;13.57;67.32
62038;BME280;47991;42.974;12.082;2023-11-19T13:26:42;98149.61;;;13.46;68.05
62038;BME280;47991;42.974;12.082;2023-11-19T13:29:09;98151.34;;;13.31;68.76
62038;BME280;47991;42.974;12.082;2023-11-19T13:31:37;98148.86;;;13.24;68.60